Bratislava, Slovakia

5:28 AM CEST on July 29, 2015 (GMT +0200)
Schwechat | | Change Station
CLOSE
Current Station
Airport
Location: Vienna Schwechat,
Elevation: 600 ft
Nearby Weather Stations

Elev 600 ft 48.11 °N, 16.57 °E | Updated 8 minutes ago

Light Rain
Light Rain
59 °F
Feels Like 59 °F
N
14
Wind Variable Wind from NNW

Today
High -- | Low -- °F
--% Chance of Precip.
Yesterday
High -- | Low -- °F
Precip. -- in
5:22 AM 8:32 PM
Waxing Gibbous, 93% visible
Pressure 29.89 in
Visibility 6.2 miles
Clouds Scattered Clouds 5000 ft
Mostly Cloudy 8500 ft
Dew Point 55 °F
Humidity 88%
Rainfall 0.00 in
Snow Depth Not available.
UV 0 out of 12
Pollen Not available.
Air Quality Not available.
Flu Activity Not available.
METAR LOWW 290320Z 33012KT 9999 -RA SCT050 BKN085 15/13 Q1012 NOSIG

More Conditions Fewer Conditions

Pressure 29.89 in
Visibility 6.2 miles
Clouds Scattered Clouds 5000 ft
Mostly Cloudy 8500 ft
Dew Point 55 °F
Humidity 88%
Rainfall 0.00 in
Snow Depth Not available.
UV 0 out of 12
Pollen Not available.
Air Quality Not available.
Flu Activity Not available.
METAR LOWW 290320Z 33012KT 9999 -RA SCT050 BKN085 15/13 Q1012 NOSIG

More Conditions Fewer Conditions

10-Day Weather Forecast

×

Almanac

Astronomy

Jul. 29, 2015 Rise Set
Actual Time
Civil Twilight
Nautical Twilight
Astronomical Twilight
Moon
Length of Visible Light
Length of Day
Tomorrow will be .
, % of the Moon is Illuminated

Today's Extremes

Country Highs Country Lows

Community

WunderPhotos

Upload Photos

1,842,023 photos uploaded!

WunderBlogs® & News

Nearby

Air Quality

  Air Quality AQ Index Pollutant
Not available.

Snow Depth

Station Depth Elevation

Earthquake Activity

City Distance Mag. Time & Date
Minimum magnitude displayed is 2.5.

Coastal Water Temperatures

Place Temperature

Stations

Nearby Weather Stations

Station Location Temp. Windchill Dew Point Humidity Wind Precip. Elev Updated Type